Eureka - southern half: Past 24 Hour Conditions

 

Repulse Bay Airport

04:00 AM CDT 31 October 2014
This table is a summary of hourly weather conditions for the past 24 hours.
Date / Time
(CDT)
Wind(knots) Conditions Visibility(km) Pressure(kPa) Air tempC) Relative humidity(%) Dew pointC) Wind Chill
31 October 2014
4:00 NNW 19 gust 26 N/A N/A 102.0 -17 80 -19 -29
3:00 NNW 19 gust 25 N/A N/A 102.0 -16 80 -19 -29
2:00 NNW 21 gust 28 N/A N/A 102.0 -15 81 -18 -27
1:00 NNW 19 gust 25 N/A N/A 102.0 -15 80 -17 -27
0:00 NNW 17 gust 25 N/A N/A 102.0 -15 82 -17 -26
30 October 2014
23:00 NNW 17 N/A N/A 102.0 -15 81 -17 -26
22:00 NNW 19 N/A N/A 102.1 -15 81 -18 -27
21:00 NNW 18 gust 24 N/A N/A 102.1 -14 80 -17 -25
20:00 SSE 5 N/A N/A 102.2 -14 77 -17 -19
19:00 NNW 8 N/A N/A 102.1 -14 77 -17 -22
18:00 NNW 12 gust 18 N/A N/A 102.1 -15 78 -18 -25
17:00 NW 7 Partly Cloudy 40 102.2 -16 77 -19 -23
16:00 NW 6 Mainly Sunny 32 102.2 -13 80 -16 -20
15:00 NNW 15 gust 20 Light Snow 32 102.1 -13 83 -15 -23
14:00 NNW 10 Mostly Cloudy 32 102.1 -13 78 -16 -21
13:00 NW 13 Mostly Cloudy 40 102.1 -13 76 -16 -23
12:00 NW 6 Mostly Cloudy 40 102.1 -15 77 -18 -21
11:00 NW 3 Mostly Cloudy 40 102.1 -15 76 -18 -19
10:00 NNW 2 Mainly Sunny 32 102.1 -16 77 -19 -19
9:00 NNW 4 Mainly Sunny 32 102.1 -16 77 -19 -21
8:00 N 1 Mainly Clear 32 102.1 -16 76 -19 -17
7:00 NNW 11 gust 18 Drifting Snow 24 102.0 -15 76 -19 -25
6:00 NW 10 gust 16 N/A N/A 102.0 -16 76 -19 -25
5:00 NNW 11 N/A N/A 102.0 -16 77 -19 -25
4:00 NNW 12 N/A N/A 102.0 -16 78 -19 -25
 
Map of Arctic - Eastern Arctic marine weather areas Baker Lake Airport Chesterfield Inlet Airport Coral Harbour Airport Gjoa Haven Airport Kugaaruk Airport Rankin Inlet Airport Shepherd Bay Airport Whale Cove Airport Arctic Bay Brevoort Island Qikiqtarjuaq Airport Cape Dorset Airport Cape Dyer Cape Hooper Clyde Airport Grise Fiord Airport Hall Beach Airport Igloolik Airport Iqaluit Airport Longstaff Bluff Pangnirtung Airport Pond Inlet Airport Repulse Bay Airport Resolute Airport Resolution Island Rowley Island Airport Taloyoak Airport Wager Bay Akulivik Airport Ivujivik Airport Puvirnituq Airport Kangiqsujuaq Airport Kangirsuk Airport Quaqtaq Airport Tasiujaq Airport Cape Kakkiviak Cape Kiglapait Nain Airport Saglek Cape Mercy Kimmirut Airport Aupaluk Airport Salluit Airport Kangiqsualujjuaq Airport Fort Ross
Legend: buoyBuoy land stationLand Station